Aérodrome :
LOGIN :

S'inscrire | Disclaimer

   EN    FR    IT 

 










Légende :    VFR   VFR Marginal   IFR   IFR Intensif   IFR Très Intensif
Visi : 
Plafond : 
>= 8 km
>= 3000ft
5 à 8 km
1000 à 3000 ft
1500m à 5 km
500 à 1000 ft
800 à 1500m
200 à 500 ft
< 800m
< 200 ft
Symboles :   Orages  Brouillard  Fortes neiges  Fortes précipitations  Vent > 20 kt
SIGMETs :   Divers  Orages  Givrage  Turbulence  Onde Orograph.  Cendres Volcan.







- Altitude de l'aérodrome : 83 ft
- Code IATA : LHR
- Voir les cartes d'approche


EGLL - London Heathrow

DERNIER METAR :
  • 210750Z AUTO VRB03KT 4600 BR BKN030 M01/M01 Q1025 BECMG 5000

METARs EXPIRÉS :
  • 210720Z AUTO 18004KT 4000 BR BKN029 M02/M02 Q1025
  • 210650Z AUTO 17004KT 140V260 4500 BR FEW031 M02/M02 Q1025 NOSIG
  • 210620Z AUTO 16005KT 3800 BR SCT010 BKN032 M02/M03 Q1025 TEMPO BKN010
  • 210550Z AUTO 15004KT 120V190 4000 BR SCT010 OVC032 M01/M02 Q1025 NOSIG
  • 210520Z AUTO VRB03KT 3700 BR BKN010 BKN034 M02/M02 Q1024 TEMPO SCT010

TAF TAF EGLL
Valide du 21 à 06h jusqu'au 22 à 12h UTC


210452Z 2106/2212 VRB03KT 3500 BR SCT012
TEMPO 2106/2111 5000 HZ BKN012
PROB30
TEMPO 2106/2110 BKN008
BECMG 2111/2114 7000 NSW
BECMG 2117/2120 19010KT 9999
TEMPO 2123/2205 4000 RA BKN008
BECMG 2202/2205 28008KT
Pas de NOTAMs connus pour ce terrain.



MET'MAP, la Météo Aéronautique d'un coup d'oeil ! - Copyright ORBIFLY Décembre 2007 - Disclaimer

ORBIFLY MET'MAP TEAM :

Programmation & Développement : Alexandra Zaïnal
Conception & Développement : Baudouin d'Aumeries
Co-Programmation & Développement : Marc-Olivier Méhu
Soutien technique & logistique : Manuel Goepfert

Contact : metmap@orbifly.com




SOURCES & CREDITS :

   NOAA